Time;durP1;ratioP1;P1;durP2;ratioP2;P2;SDS_P1;SDS_P2;PMS_P1;PMS_P2;Temp;Humidity;BMP_temperature;BMP_pressure;BME280_temperature;BME280_humidity;BME280_pressure;Samples;Min_cycle;Max_cycle;Signal;HPM_P1;HPM_P2
2023/04/14 00:01:22;;;;;;;13.23;4.38;;;;;;;4.45;100.00;100712.88;5072167;28;20048;-59
2023/04/14 00:03:51;;;;;;;8.02;3.60;;;;;;;4.46;100.00;100719.78;5072616;28;20053;-59
2023/04/14 00:06:20;;;;;;;7.93;3.33;;;;;;;4.32;100.00;100716.88;5070228;28;20045;-59
2023/04/14 00:08:48;;;;;;;8.63;3.35;;;;;;;4.38;100.00;100719.25;5072192;28;20136;-59
2023/04/14 00:11:18;;;;;;;11.27;3.55;;;;;;;4.39;100.00;100721.78;5072545;28;20040;-59
2023/04/14 00:13:46;;;;;;;7.15;3.58;;;;;;;4.36;100.00;100724.53;5071765;28;20503;-58
2023/04/14 00:16:16;;;;;;;8.68;3.22;;;;;;;4.38;100.00;100724.47;5072172;28;20119;-59
2023/04/14 00:18:44;;;;;;;8.52;3.45;;;;;;;4.34;100.00;100726.31;5073519;28;20055;-58
2023/04/14 00:21:12;;;;;;;7.57;3.25;;;;;;;4.34;100.00;100730.69;5073405;28;20071;-59
2023/04/14 00:28:04;;;;;;;7.75;3.33;;;;;;;4.25;100.00;100733.66;5073534;28;20129;-59
2023/04/14 00:30:32;;;;;;;9.63;3.70;;;;;;;4.25;100.00;100731.06;5073946;28;20087;-59
2023/04/14 00:33:01;;;;;;;7.97;3.60;;;;;;;4.20;100.00;100732.09;5073501;28;20101;-58
2023/04/14 00:35:31;;;;;;;8.52;4.13;;;;;;;4.17;100.00;100734.84;5072831;28;20036;-59
2023/04/14 00:37:59;;;;;;;10.07;3.85;;;;;;;4.10;100.00;100732.53;5072721;28;20045;-59
2023/04/14 00:40:30;;;;;;;11.77;4.30;;;;;;;4.04;100.00;100733.63;5071697;28;20105;-59
2023/04/14 00:42:58;;;;;;;12.70;4.60;;;;;;;4.06;100.00;100734.41;5073283;28;20042;-58
2023/04/14 00:45:27;;;;;;;9.23;3.72;;;;;;;4.07;100.00;100734.31;5073720;28;20452;-55
2023/04/14 00:47:55;;;;;;;8.10;4.00;;;;;;;3.98;100.00;100737.31;5070594;28;20115;-59
2023/04/14 00:50:25;;;;;;;9.68;4.07;;;;;;;3.94;100.00;100738.34;5071796;28;20137;-59
2023/04/14 00:52:53;;;;;;;8.40;3.70;;;;;;;3.96;100.00;100746.09;5072099;28;20052;-58
2023/04/14 00:55:22;;;;;;;11.85;4.20;;;;;;;3.99;100.00;100752.00;5073438;28;20392;-59
2023/04/14 00:57:50;;;;;;;12.48;4.20;;;;;;;3.88;100.00;100746.38;5073189;28;20045;-59
2023/04/14 01:00:19;;;;;;;10.38;4.22;;;;;;;3.85;100.00;100751.72;5073213;28;20062;-59
2023/04/14 01:02:47;;;;;;;8.07;3.75;;;;;;;3.81;100.00;100753.56;5072732;28;20434;-59
2023/04/14 01:05:15;;;;;;;10.43;3.97;;;;;;;3.81;100.00;100752.72;5071400;28;20052;-59
2023/04/14 01:07:47;;;;;;;9.52;4.43;;;;;;;3.83;100.00;100746.56;5071930;28;20044;-59
2023/04/14 01:10:15;;;;;;;9.02;3.72;;;;;;;3.81;100.00;100747.53;5064961;28;20495;-59
2023/04/14 01:13:08;;;;;;;7.47;3.83;;;;;;;3.78;100.00;100752.88;5070462;28;20049;-59
2023/04/14 01:15:42;;;;;;;9.85;4.28;;;;;;;3.81;100.00;100756.16;5072685;28;20048;-59
2023/04/14 01:18:18;;;;;;;8.35;4.20;;;;;;;3.75;100.00;100763.34;5071748;28;20052;-58
2023/04/14 01:20:50;;;;;;;10.68;4.55;;;;;;;3.68;100.00;100762.75;5072058;28;20036;-58
2023/04/14 01:23:23;;;;;;;9.00;3.58;;;;;;;3.62;100.00;100763.81;5071958;28;20055;-59
2023/04/14 01:26:26;;;;;;;9.80;4.18;;;;;;;3.66;100.00;100761.97;5071456;28;20430;-58
2023/04/14 01:29:40;;;;;;;10.13;4.13;;;;;;;3.62;100.00;100765.59;5029459;28;20092;-59
2023/04/14 01:32:14;;;;;;;9.75;4.00;;;;;;;3.58;100.00;100764.00;5027345;28;20049;-58
2023/04/14 01:34:50;;;;;;;10.63;4.22;;;;;;;3.62;100.00;100763.00;5067963;28;20353;-58
2023/04/14 01:37:28;;;;;;;9.45;4.18;;;;;;;3.50;100.00;100769.47;5072403;28;20076;-59
2023/04/14 01:40:01;;;;;;;10.65;4.93;;;;;;;3.47;100.00;100756.59;5072507;28;20083;-58
2023/04/14 01:42:36;;;;;;;8.75;4.28;;;;;;;3.48;100.00;100774.75;5069907;28;20040;-58
2023/04/14 01:45:11;;;;;;;9.18;4.55;;;;;;;3.47;100.00;100769.59;5069601;28;20547;-58
2023/04/14 01:47:43;;;;;;;11.00;5.18;;;;;;;3.42;100.00;100774.94;5071140;28;20499;-57
2023/04/14 01:50:13;;;;;;;10.40;4.40;;;;;;;3.30;100.00;100763.25;5070650;28;20102;-58
2023/04/14 01:52:46;;;;;;;7.85;4.30;;;;;;;3.31;100.00;100770.16;5069955;28;20436;-59
2023/04/14 01:55:17;;;;;;;10.27;4.25;;;;;;;3.28;100.00;100774.63;5069955;28;20447;-57
2023/04/14 01:57:48;;;;;;;10.52;4.97;;;;;;;3.24;100.00;100775.63;5068348;28;20058;-58
2023/04/14 02:00:18;;;;;;;10.00;4.90;;;;;;;3.30;100.00;100783.19;5068985;28;20400;-58
2023/04/14 02:02:50;;;;;;;8.82;4.30;;;;;;;3.24;100.00;100780.84;5069635;28;20507;-58
2023/04/14 02:05:23;;;;;;;8.57;4.32;;;;;;;3.23;100.00;100779.97;5071120;28;20044;-59
2023/04/14 02:07:53;;;;;;;9.93;4.45;;;;;;;3.24;100.00;100779.06;5069634;28;20566;-59
2023/04/14 02:10:23;;;;;;;8.38;4.30;;;;;;;3.21;100.00;100790.41;5067999;28;20131;-59
2023/04/14 02:12:54;;;;;;;9.75;4.45;;;;;;;3.18;100.00;100787.94;5071763;28;20044;-59
2023/04/14 02:15:27;;;;;;;8.10;4.53;;;;;;;3.15;100.00;100787.19;5070545;28;20499;-59
2023/04/14 02:17:58;;;;;;;12.73;4.68;;;;;;;3.11;100.00;100789.06;5069934;28;20145;-58
2023/04/14 02:20:28;;;;;;;12.13;4.80;;;;;;;3.11;100.00;100789.06;5070713;28;20487;-58
2023/04/14 02:22:56;;;;;;;8.15;4.57;;;;;;;3.04;100.00;100791.03;5069621;28;20048;-58
2023/04/14 02:25:32;;;;;;;11.80;4.90;;;;;;;3.05;100.00;100794.47;5068961;28;20037;-58
2023/04/14 02:28:05;;;;;;;9.45;4.25;;;;;;;3.03;100.00;100794.50;5071552;28;20040;-58
2023/04/14 02:30:38;;;;;;;12.82;4.18;;;;;;;3.01;100.00;100803.25;5070004;28;20499;-59
2023/04/14 02:33:10;;;;;;;8.75;4.65;;;;;;;2.99;100.00;100803.31;5071022;28;20479;-58
2023/04/14 02:35:43;;;;;;;9.98;4.40;;;;;;;3.06;100.00;100811.75;5070552;28;20045;-59
2023/04/14 02:38:22;;;;;;;10.45;4.32;;;;;;;3.01;100.00;100811.06;5068747;28;20063;-58
2023/04/14 02:40:51;;;;;;;8.55;4.18;;;;;;;2.90;100.00;100805.38;5069971;28;20490;-58
2023/04/14 02:43:29;;;;;;;9.40;4.65;;;;;;;2.92;100.00;100808.75;5071318;28;20155;-59
2023/04/14 02:46:01;;;;;;;9.45;4.25;;;;;;;2.81;100.00;100798.72;5070440;28;20070;-59
2023/04/14 02:48:34;;;;;;;11.00;4.38;;;;;;;2.82;100.00;100809.09;5070481;28;20483;-59
2023/04/14 02:55:47;;;;;;;10.02;4.43;;;;;;;2.83;100.00;100808.19;5051907;28;20068;-58
2023/04/14 02:58:16;;;;;;;8.80;4.20;;;;;;;2.77;100.00;100804.94;5067867;28;20189;-58
2023/04/14 03:00:46;;;;;;;9.07;4.07;;;;;;;2.81;100.00;100806.53;5065978;28;20049;-59
2023/04/14 03:03:15;;;;;;;8.48;4.40;;;;;;;2.66;100.00;100805.31;5070160;28;20047;-59
2023/04/14 03:05:47;;;;;;;11.65;5.05;;;;;;;2.67;100.00;100817.38;5071407;28;20043;-59
2023/04/14 03:08:16;;;;;;;8.25;4.28;;;;;;;2.75;100.00;100811.94;5071140;28;20102;-58
2023/04/14 03:10:48;;;;;;;12.07;4.57;;;;;;;2.62;100.00;100816.66;5071596;28;20051;-59
2023/04/14 03:13:18;;;;;;;9.40;4.53;;;;;;;2.58;100.00;100810.75;5071813;28;20047;-58
2023/04/14 03:15:47;;;;;;;10.70;5.00;;;;;;;2.56;100.00;100811.69;5071518;28;20051;-58
2023/04/14 03:18:16;;;;;;;11.63;4.70;;;;;;;2.55;100.00;100818.63;5068710;28;20040;-59
2023/04/14 03:20:47;;;;;;;8.70;4.70;;;;;;;2.48;100.00;100806.72;5070301;28;20067;-58
2023/04/14 03:23:18;;;;;;;8.13;4.15;;;;;;;2.62;100.00;100808.88;5066944;28;20499;-59
2023/04/14 03:25:47;;;;;;;9.65;4.85;;;;;;;2.53;100.00;100802.25;5070458;28;20052;-53
2023/04/14 03:28:21;;;;;;;12.10;4.88;;;;;;;2.48;100.00;100802.41;5072466;28;20048;-53
2023/04/14 03:30:52;;;;;;;7.85;4.28;;;;;;;2.59;100.00;100804.66;5072635;28;20079;-53
2023/04/14 03:33:25;;;;;;;9.38;4.70;;;;;;;2.48;100.00;100810.19;5072343;28;20123;-59
2023/04/14 03:35:57;;;;;;;14.35;5.97;;;;;;;2.41;100.00;100802.66;5072389;28;20121;-54
2023/04/14 03:38:27;;;;;;;8.93;4.30;;;;;;;2.45;100.00;100805.06;5074662;28;20444;-59
2023/04/14 03:40:59;;;;;;;7.60;4.28;;;;;;;2.39;100.00;100810.47;5072809;28;20051;-54
2023/04/14 03:43:29;;;;;;;11.07;5.13;;;;;;;2.32;100.00;100802.03;5072286;28;20082;-54
2023/04/14 03:45:57;;;;;;;11.00;5.15;;;;;;;2.25;100.00;100808.31;5073577;28;20487;-53
2023/04/14 03:48:28;;;;;;;11.35;4.43;;;;;;;2.28;100.00;100813.41;5075669;28;20055;-53
2023/04/14 03:51:01;;;;;;;12.10;5.05;;;;;;;2.31;100.00;100809.88;5072810;28;20056;-52
2023/04/14 03:53:30;;;;;;;10.90;4.65;;;;;;;2.27;100.00;100819.50;5072135;28;20093;-53
2023/04/14 03:55:59;;;;;;;7.40;4.10;;;;;;;2.19;100.00;100814.53;5072146;28;20456;-53
2023/04/14 03:58:31;;;;;;;9.43;4.65;;;;;;;2.25;100.00;100820.44;5072885;28;20044;-53
2023/04/14 04:01:02;;;;;;;8.55;4.50;;;;;;;2.22;100.00;100823.13;5072940;28;20127;-52
2023/04/14 04:03:32;;;;;;;9.73;4.75;;;;;;;2.29;100.00;100830.69;5063771;28;20056;-52
2023/04/14 04:06:03;;;;;;;12.40;5.13;;;;;;;2.26;100.00;100822.13;5070139;28;20057;-52
2023/04/14 04:08:33;;;;;;;10.57;4.78;;;;;;;2.22;100.00;100823.13;5073501;28;20410;-52
2023/04/14 04:11:05;;;;;;;12.07;4.88;;;;;;;2.22;100.00;100820.53;5073692;28;20052;-52
2023/04/14 04:13:37;;;;;;;10.65;4.65;;;;;;;2.34;100.00;100827.94;5072289;28;20055;-54
2023/04/14 04:16:08;;;;;;;9.68;4.82;;;;;;;2.25;100.00;100829.09;5073506;28;20889;-53
2023/04/14 04:18:39;;;;;;;10.32;4.50;;;;;;;2.20;100.00;100831.81;5071829;28;20047;-52
2023/04/14 04:21:10;;;;;;;12.32;4.93;;;;;;;2.08;100.00;100831.34;5070273;28;20060;-53
2023/04/14 04:23:43;;;;;;;11.50;5.00;;;;;;;1.99;100.00;100830.72;5069952;28;20446;-51
2023/04/14 04:26:11;;;;;;;;;;;;;;;1.95;100.00;100826.50;5070102;28;20056;-52
2023/04/14 04:28:40;;;;;;;11.50;4.72;;;;;;;1.91;100.00;100827.50;5069937;28;20022;-51
2023/04/14 04:31:09;;;;;;;11.27;4.78;;;;;;;1.99;100.00;100827.25;5070238;28;20053;-55
2023/04/14 04:33:38;;;;;;;9.35;4.80;;;;;;;1.90;100.00;100824.97;5072182;28;20100;-53
2023/04/14 04:36:09;;;;;;;11.68;5.25;;;;;;;1.96;100.00;100827.34;5068231;28;20042;-53
2023/04/14 04:38:37;;;;;;;11.80;5.20;;;;;;;1.98;100.00;100830.75;5068752;28;20060;-54
2023/04/14 04:41:05;;;;;;;14.00;5.25;;;;;;;1.93;100.00;100833.47;5070725;28;20041;-53
2023/04/14 04:43:36;;;;;;;11.80;5.40;;;;;;;2.01;100.00;100841.88;5070320;28;20036;-53
2023/04/14 04:46:24;;;;;;;10.57;4.90;;;;;;;2.05;100.00;100842.66;5067082;28;20048;-53
2023/04/14 04:48:55;;;;;;;8.38;4.90;;;;;;;2.04;100.00;100848.72;5068271;28;20052;-50
2023/04/14 04:51:25;;;;;;;10.10;4.47;;;;;;;1.99;100.00;100842.81;5072551;28;20052;-51
2023/04/14 04:53:53;;;;;;;10.35;5.18;;;;;;;1.94;100.00;100840.38;5073159;28;20479;-53
2023/04/14 04:56:23;;;;;;;9.82;5.55;;;;;;;1.88;100.00;100837.09;5070578;28;20051;-53
2023/04/14 04:58:52;;;;;;;13.05;4.95;;;;;;;1.93;100.00;100838.66;5068766;28;20048;-50
2023/04/14 05:01:20;;;;;;;9.25;4.38;;;;;;;1.88;100.00;100840.53;5069049;28;20048;-53
2023/04/14 05:03:48;;;;;;;9.32;4.68;;;;;;;1.90;100.00;100837.94;5071874;28;20045;-53
2023/04/14 05:06:16;;;;;;;8.65;4.50;;;;;;;1.83;100.00;100838.09;5068350;28;20522;-54
2023/04/14 05:08:46;;;;;;;11.32;5.10;;;;;;;1.90;100.00;100833.56;5069948;28;20041;-49
2023/04/14 05:11:14;;;;;;;11.40;5.00;;;;;;;1.86;100.00;100835.41;5070076;28;20575;-52
2023/04/14 05:13:42;;;;;;;10.00;5.15;;;;;;;1.80;100.00;100847.69;5072829;28;20040;-52
2023/04/14 05:16:12;;;;;;;12.63;5.60;;;;;;;1.80;100.00;100858.06;5073158;28;20556;-54
2023/04/14 05:18:42;;;;;;;9.88;5.32;;;;;;;1.75;100.00;100850.44;5072688;28;20102;-54
2023/04/14 05:21:12;;;;;;;10.05;5.13;;;;;;;1.76;100.00;100851.25;5070773;28;20131;-53
2023/04/14 05:23:42;;;;;;;12.65;5.15;;;;;;;1.77;100.00;100837.41;5070984;28;20044;-53
2023/04/14 05:26:13;;;;;;;12.15;5.43;;;;;;;1.76;100.00;100836.56;5069024;28;20476;-53
2023/04/14 05:29:01;;;;;;;12.93;5.57;;;;;;;1.81;100.00;100836.44;5072789;28;20117;-52
2023/04/14 05:31:29;;;;;;;14.00;5.57;;;;;;;1.86;100.00;100835.41;5069549;28;20051;-54
2023/04/14 05:33:57;;;;;;;10.75;5.40;;;;;;;1.81;100.00;100839.03;5069432;28;20087;-55
2023/04/14 05:36:28;;;;;;;14.10;5.22;;;;;;;1.82;100.00;100838.97;5067326;28;20048;-53
2023/04/14 05:38:56;;;;;;;10.60;5.55;;;;;;;1.84;100.00;100838.94;5068236;28;20134;-54
2023/04/14 05:41:26;;;;;;;11.70;5.45;;;;;;;1.81;100.00;100844.22;5068280;28;20880;-54
2023/04/14 05:43:54;;;;;;;13.88;5.68;;;;;;;1.83;100.00;100842.44;5068221;28;20052;-53
2023/04/14 05:46:25;;;;;;;15.77;6.47;;;;;;;1.81;100.00;100839.91;5071183;28;20056;-53
2023/04/14 05:48:53;;;;;;;14.73;6.38;;;;;;;1.88;100.00;100834.50;5072140;28;20041;-53
2023/04/14 05:51:21;;;;;;;13.40;6.57;;;;;;;1.92;100.00;100841.31;5071581;28;20098;-54
2023/04/14 05:53:49;;;;;;;11.88;6.70;;;;;;;1.91;100.00;100839.59;5069269;28;20376;-55
2023/04/14 05:56:17;;;;;;;12.35;7.22;;;;;;;1.93;100.00;100830.88;5068456;28;20048;-60
2023/04/14 05:58:47;;;;;;;13.43;6.65;;;;;;;2.00;100.00;100835.03;5072361;28;20067;-54
2023/04/14 06:01:15;;;;;;;11.43;6.47;;;;;;;2.03;100.00;100842.69;5069482;28;20055;-58
2023/04/14 06:03:43;;;;;;;12.70;6.43;;;;;;;2.11;100.00;100847.66;5070437;28;20051;-58
2023/04/14 06:06:12;;;;;;;13.90;6.68;;;;;;;2.17;100.00;100841.44;5071730;28;20045;-58
2023/04/14 06:08:40;;;;;;;12.90;7.10;;;;;;;2.19;100.00;100844.81;5072896;28;20052;-52
2023/04/14 06:11:08;;;;;;;10.35;6.32;;;;;;;2.24;100.00;100848.16;5069660;28;20053;-53
2023/04/14 06:13:36;;;;;;;15.57;7.07;;;;;;;2.32;100.00;100845.31;5069462;28;20462;-58
2023/04/14 06:16:06;;;;;;;15.23;6.93;;;;;;;2.41;100.00;100846.78;5071529;28;20037;-52
2023/04/14 06:18:35;;;;;;;12.63;6.80;;;;;;;2.46;100.00;100840.53;5066994;28;20047;-54
2023/04/14 06:21:03;;;;;;;12.65;6.63;;;;;;;2.53;100.00;100843.78;5069777;28;20147;-57
2023/04/14 06:23:31;;;;;;;15.77;7.45;;;;;;;2.63;100.00;100846.94;5069756;28;20715;-57
2023/04/14 06:25:59;;;;;;;15.65;6.70;;;;;;;2.75;100.00;100840.50;5069443;28;20044;-57
2023/04/14 06:28:27;;;;;;;14.45;6.90;;;;;;;2.97;100.00;100849.31;5071608;28;20032;-57
2023/04/14 06:30:55;;;;;;;11.98;6.72;;;;;;;3.04;100.00;100844.72;5070835;28;20110;-53
2023/04/14 06:33:25;;;;;;;11.80;6.40;;;;;;;3.31;100.00;100855.09;5069744;28;20064;-57
2023/04/14 06:35:53;;;;;;;14.48;6.25;;;;;;;3.39;100.00;100853.06;5068885;28;20131;-57
2023/04/14 06:38:23;;;;;;;18.30;6.78;;;;;;;3.64;100.00;100855.66;5066792;28;20094;-57
2023/04/14 06:40:51;;;;;;;18.23;6.95;;;;;;;3.73;100.00;100842.31;5068193;28;20098;-57
2023/04/14 06:43:20;;;;;;;17.52;7.22;;;;;;;3.82;100.00;100838.53;5068296;28;20506;-57
2023/04/14 06:45:49;;;;;;;13.27;6.30;;;;;;;4.01;100.00;100843.91;5071400;28;20507;-57
2023/04/14 06:48:18;;;;;;;11.88;6.07;;;;;;;4.03;100.00;100843.84;5068470;28;20045;-57
2023/04/14 06:50:54;;;;;;;13.70;6.63;;;;;;;4.15;100.00;100843.38;5069106;28;20039;-58
2023/04/14 06:53:22;;;;;;;15.00;6.13;;;;;;;4.30;100.00;100835.88;5071422;28;20044;-57
2023/04/14 06:55:57;;;;;;;14.52;6.30;;;;;;;4.38;100.00;100841.63;5070723;28;20048;-57
2023/04/14 06:58:26;;;;;;;12.43;6.18;;;;;;;4.49;100.00;100831.63;5068863;28;20044;-57
2023/04/14 07:00:56;;;;;;;14.52;6.07;;;;;;;4.70;100.00;100835.16;5070939;28;20057;-58
2023/04/14 07:03:24;;;;;;;13.75;6.15;;;;;;;4.86;100.00;100835.34;5072307;28;20049;-57
2023/04/14 07:05:53;;;;;;;13.80;5.97;;;;;;;5.02;100.00;100834.72;5072273;28;20060;-57
2023/04/14 07:08:22;;;;;;;14.45;5.38;;;;;;;5.14;100.00;100831.59;5071151;28;20186;-53
2023/04/14 07:10:50;;;;;;;11.30;5.63;;;;;;;5.37;100.00;100834.97;5073953;28;20044;-54
2023/04/14 07:13:18;;;;;;;14.13;6.03;;;;;;;5.50;100.00;100825.69;5076004;28;20053;-53
2023/04/14 07:15:47;;;;;;;17.88;5.72;;;;;;;5.65;100.00;100836.38;5076627;28;20052;-51
2023/04/14 07:18:15;;;;;;;16.20;5.38;;;;;;;5.86;100.00;100830.19;5076554;28;20049;-53
2023/04/14 07:20:43;;;;;;;20.17;5.50;;;;;;;6.00;100.00;100828.72;5076169;28;20051;-53
2023/04/14 07:23:13;;;;;;;12.10;5.32;;;;;;;6.16;100.00;100831.47;5074747;28;20438;-52
2023/04/14 07:25:41;;;;;;;13.65;4.90;;;;;;;6.30;100.00;100830.81;5076018;28;20086;-54
2023/04/14 07:28:09;;;;;;;12.73;4.97;;;;;;;6.48;100.00;100822.09;5075686;28;20585;-54
2023/04/14 07:30:37;;;;;;;12.35;5.35;;;;;;;6.70;100.00;100826.28;5075823;28;20094;-53
2023/04/14 07:33:05;;;;;;;17.48;6.15;;;;;;;6.94;100.00;100829.47;5074559;28;20102;-54
2023/04/14 07:35:34;;;;;;;10.70;4.45;;;;;;;7.16;100.00;100823.97;5073258;28;20582;-54
2023/04/14 07:38:02;;;;;;;11.77;4.80;;;;;;;7.27;100.00;100821.66;5071852;28;20045;-54
2023/04/14 07:40:31;;;;;;;7.88;3.85;;;;;;;7.49;100.00;100823.16;5072169;28;20094;-53
2023/04/14 07:42:59;;;;;;;14.43;4.60;;;;;;;7.68;100.00;100822.19;5075574;28;20411;-53
2023/04/14 07:45:27;;;;;;;12.73;4.10;;;;;;;7.93;100.00;100816.47;5075646;28;20492;-53
2023/04/14 07:47:55;;;;;;;9.70;3.42;;;;;;;8.21;100.00;100817.59;5075472;28;20084;-53
2023/04/14 07:50:25;;;;;;;9.65;3.80;;;;;;;8.44;100.00;100818.91;5075795;28;20056;-54
2023/04/14 07:52:53;;;;;;;11.02;3.88;;;;;;;8.58;100.00;100818.16;5075482;28;20052;-54
2023/04/14 07:55:21;;;;;;;11.88;3.30;;;;;;;8.75;100.00;100812.78;5075538;28;20526;-59
2023/04/14 07:57:50;;;;;;;12.43;3.60;;;;;;;8.92;100.00;100809.16;5075738;28;20384;-59
2023/04/14 08:00:19;;;;;;;13.02;3.33;;;;;;;9.00;100.00;100820.97;5074269;28;20053;-59
2023/04/14 08:02:47;;;;;;;11.82;4.15;;;;;;;9.28;100.00;100817.56;5074014;28;20105;-59
2023/04/14 08:05:16;;;;;;;12.55;3.20;;;;;;;9.44;100.00;100814.88;5072017;28;20044;-58
2023/04/14 08:07:45;;;;;;;10.88;3.22;;;;;;;9.59;100.00;100813.91;5072519;28;20063;-59
2023/04/14 08:10:13;;;;;;;10.13;3.40;;;;;;;9.76;100.00;100807.63;5071999;28;20041;-58
2023/04/14 08:12:41;;;;;;;13.80;3.28;;;;;;;10.00;100.00;100804.41;5073170;28;20148;-59
2023/04/14 08:15:11;;;;;;;9.43;3.17;;;;;;;10.28;100.00;100802.63;5075451;28;20051;-59
2023/04/14 08:17:39;;;;;;;14.43;3.38;;;;;;;10.47;100.00;100804.94;5073174;28;20056;-58
2023/04/14 08:20:08;;;;;;;16.65;3.50;;;;;;;10.68;100.00;100807.97;5072269;28;20055;-59
2023/04/14 08:22:38;;;;;;;13.88;3.50;;;;;;;10.77;100.00;100817.00;5072621;28;20565;-59
2023/04/14 08:25:06;;;;;;;11.25;3.50;;;;;;;11.02;100.00;100810.13;5072850;28;20657;-59
2023/04/14 08:27:35;;;;;;;13.52;3.50;;;;;;;11.18;100.00;100823.06;5072052;28;20106;-59
2023/04/14 08:30:07;;;;;;;14.02;3.55;;;;;;;11.43;100.00;100811.72;5072588;28;20036;-59
2023/04/14 08:32:39;;;;;;;12.43;3.33;;;;;;;11.61;100.00;100805.16;5073273;28;20088;-59
2023/04/14 08:35:08;;;;;;;11.45;3.22;;;;;;;11.62;100.00;100804.22;5075022;28;20377;-59
2023/04/14 08:37:59;;;;;;;10.52;3.20;;;;;;;11.83;100.00;100801.00;5074173;28;20033;-60
2023/04/14 08:40:36;;;;;;;10.55;3.80;;;;;;;12.03;100.00;100798.78;5070714;28;20067;-60
2023/04/14 08:43:07;;;;;;;11.10;3.40;;;;;;;12.09;100.00;100800.97;5067600;28;20048;-60
2023/04/14 08:45:36;;;;;;;10.70;3.30;;;;;;;12.34;100.00;100798.22;5072084;28;20041;-59
2023/04/14 08:48:06;;;;;;;12.00;3.17;;;;;;;12.49;100.00;100798.06;5073336;28;20140;-60
2023/04/14 08:50:37;;;;;;;11.82;2.92;;;;;;;12.67;100.00;100796.69;5072921;28;20041;-60
2023/04/14 08:53:09;;;;;;;13.77;3.35;;;;;;;12.72;100.00;100803.41;5072533;28;20067;-60
2023/04/14 08:55:41;;;;;;;7.85;2.58;;;;;;;12.64;100.00;100799.56;5071126;28;20055;-60
2023/04/14 08:58:10;;;;;;;9.73;2.45;;;;;;;12.79;100.00;100797.56;5070546;28;20074;-61
2023/04/14 09:00:40;;;;;;;10.27;2.67;;;;;;;12.89;100.00;100800.34;5070442;28;20070;-60
2023/04/14 09:03:12;;;;;;;7.75;2.50;;;;;;;13.22;100.00;100787.34;5069112;28;20140;-60
2023/04/14 09:05:44;;;;;;;10.48;2.47;;;;;;;13.39;100.00;100780.75;5073585;28;20123;-60
2023/04/14 09:08:12;;;;;;;11.80;2.75;;;;;;;13.44;100.00;100786.53;5073094;28;20056;-60
2023/04/14 09:10:41;;;;;;;9.85;3.25;;;;;;;13.65;97.35;100786.66;5072041;28;20048;-60
2023/04/14 09:13:13;;;;;;;9.18;2.67;;;;;;;13.62;95.63;100787.75;5072476;28;20056;-60
2023/04/14 09:15:42;;;;;;;10.48;2.72;;;;;;;13.51;95.91;100785.09;5074271;28;20053;-60
2023/04/14 09:18:12;;;;;;;8.75;2.65;;;;;;;13.56;92.74;100782.09;5072391;28;20044;-60
2023/04/14 09:20:40;;;;;;;12.25;2.90;;;;;;;13.80;94.94;100774.03;5071601;28;20067;-56
2023/04/14 09:23:09;;;;;;;10.95;2.30;;;;;;;14.06;91.53;100777.22;5074079;28;20055;-57
2023/04/14 09:25:38;;;;;;;9.18;2.60;;;;;;;14.38;91.88;100779.03;5070557;28;20055;-57
2023/04/14 09:28:06;;;;;;;11.27;2.35;;;;;;;14.46;86.66;100770.47;5076321;28;20440;-57
2023/04/14 09:30:35;;;;;;;9.23;1.92;;;;;;;14.72;90.20;100770.97;5078502;28;20053;-57
2023/04/14 09:33:06;;;;;;;7.55;2.20;;;;;;;15.03;87.84;100777.16;5070550;28;20136;-57
2023/04/14 09:35:47;;;;;;;12.75;2.45;;;;;;;15.14;85.81;100772.75;5070103;28;20063;-57
2023/04/14 09:38:16;;;;;;;7.60;2.05;;;;;;;15.09;86.62;100773.13;5071510;28;20106;-57
2023/04/14 09:40:44;;;;;;;11.20;2.05;;;;;;;15.04;80.54;100765.59;5069818;28;20040;-57
2023/04/14 09:43:26;;;;;;;5.70;2.05;;;;;;;15.21;74.23;100758.00;5072088;28;20051;-57
2023/04/14 09:45:55;;;;;;;6.78;1.88;;;;;;;15.09;74.39;100759.06;5073402;28;20123;-56
2023/04/14 09:48:24;;;;;;;8.90;1.98;;;;;;;14.94;76.03;100759.38;5073505;28;20063;-57
2023/04/14 09:51:00;;;;;;;8.20;1.85;;;;;;;15.36;74.17;100764.63;5071025;28;20040;-57
2023/04/14 09:53:30;;;;;;;7.38;1.90;;;;;;;15.53;75.55;100762.34;5069500;28;20048;-58
2023/04/14 09:56:01;;;;;;;5.57;1.50;;;;;;;15.81;74.47;100755.44;5072567;28;20094;-57
2023/04/14 09:58:33;;;;;;;5.55;1.63;;;;;;;15.56;68.00;100759.41;5072214;28;20110;-57
2023/04/14 10:01:03;;;;;;;6.05;1.90;;;;;;;15.79;68.83;100748.56;5069532;28;20377;-57
2023/04/14 10:03:36;;;;;;;4.60;1.30;;;;;;;15.89;63.73;100746.81;5071313;28;20068;-57
2023/04/14 10:06:10;;;;;;;8.85;1.98;;;;;;;15.79;62.96;100743.28;5072955;28;20078;-57
2023/04/14 10:08:39;;;;;;;5.53;1.30;;;;;;;15.99;61.11;100745.03;5072879;28;20068;-57
2023/04/14 10:11:15;;;;;;;7.90;1.60;;;;;;;15.84;62.38;100749.03;5069269;28;20050;-57
2023/04/14 10:13:43;;;;;;;;;;;;;;;15.91;61.95;100744.88;5071766;28;20090;-57
2023/04/14 10:16:11;;;;;;;4.55;1.33;;;;;;;16.13;60.46;100745.59;5070406;28;19932;-57
2023/04/14 10:18:39;;;;;;;7.13;1.42;;;;;;;16.48;61.89;100741.53;5070224;28;20079;-57
2023/04/14 10:21:10;;;;;;;7.22;1.63;;;;;;;16.41;59.75;100741.25;5068769;28;20045;-56
2023/04/14 10:23:40;;;;;;;4.57;1.52;;;;;;;15.75;59.11;100732.13;5069281;28;20037;-58
2023/04/14 10:26:10;;;;;;;6.85;1.75;;;;;;;16.25;58.01;100723.25;5076980;28;20059;-56
2023/04/14 10:28:40;;;;;;;7.28;1.48;;;;;;;16.42;60.80;100729.69;5084050;28;20411;-56
2023/04/14 10:31:14;;;;;;;4.93;1.35;;;;;;;16.33;58.05;100720.75;5070916;28;20041;-57
2023/04/14 10:33:43;;;;;;;5.50;1.67;;;;;;;16.45;57.24;100720.59;5070277;28;20063;-56
2023/04/14 10:36:22;;;;;;;5.32;1.55;;;;;;;16.65;57.36;100724.06;5066581;28;20053;-56
2023/04/14 10:38:57;;;;;;;6.00;1.48;;;;;;;16.84;55.61;100718.72;5066911;28;20457;-57
2023/04/14 10:41:25;;;;;;;7.63;1.58;;;;;;;17.12;55.55;100712.66;5070372;28;20091;-56
2023/04/14 10:43:54;;;;;;;7.18;1.80;;;;;;;17.30;55.21;100718.88;5071374;28;20132;-57
2023/04/14 10:46:23;;;;;;;7.47;1.58;;;;;;;17.39;53.21;100709.97;5069887;28;20446;-57
2023/04/14 10:48:52;;;;;;;6.45;1.40;;;;;;;17.22;53.33;100702.81;5068051;28;20045;-57
2023/04/14 10:51:34;;;;;;;6.57;1.20;;;;;;;17.46;52.22;100706.75;5066065;28;20044;-56
2023/04/14 10:54:03;;;;;;;6.17;1.37;;;;;;;17.42;52.58;100706.19;5067085;28;20040;-57
2023/04/14 10:56:31;;;;;;;6.20;1.23;;;;;;;17.31;50.94;100703.75;5067193;28;20049;-56
2023/04/14 10:59:00;;;;;;;7.85;1.60;;;;;;;17.15;52.63;100701.72;5067537;28;20048;-56
2023/04/14 11:01:30;;;;;;;6.70;1.77;;;;;;;17.79;52.90;100702.63;5069094;28;20415;-57
2023/04/14 11:04:16;;;;;;;5.38;1.50;;;;;;;18.05;51.54;100705.41;5068431;28;20040;-56
2023/04/14 11:06:51;;;;;;;7.32;1.70;;;;;;;17.86;49.96;100702.84;5068375;28;20040;-56
2023/04/14 11:09:30;;;;;;;5.63;1.40;;;;;;;17.84;51.15;100699.53;5069160;28;20078;-57
2023/04/14 11:12:04;;;;;;;5.22;1.40;;;;;;;17.86;46.96;100693.06;5068287;28;20066;-57
2023/04/14 11:14:34;;;;;;;6.20;1.60;;;;;;;17.66;49.66;100692.34;5070521;28;20060;-56
2023/04/14 11:17:04;;;;;;;5.00;1.45;;;;;;;17.72;48.36;100697.09;5072174;28;20094;-58
2023/04/14 11:19:33;;;;;;;8.52;1.60;;;;;;;17.34;49.39;100688.34;5071445;28;20098;-56
2023/04/14 11:22:02;;;;;;;6.95;1.60;;;;;;;17.18;50.50;100690.81;5068359;28;20049;-56
2023/04/14 11:24:31;;;;;;;6.43;1.60;;;;;;;17.27;51.64;100679.28;5070221;28;20110;-57
2023/04/14 11:26:59;;;;;;;5.85;1.52;;;;;;;17.09;52.16;100689.03;5072424;28;20533;-56
2023/04/14 11:29:28;;;;;;;6.78;1.52;;;;;;;17.00;52.18;100690.72;5068531;28;20060;-56
2023/04/14 11:32:04;;;;;;;6.53;1.80;;;;;;;16.82;52.02;100686.13;5065716;28;20488;-57
2023/04/14 11:34:33;;;;;;;7.28;2.00;;;;;;;17.19;52.25;100695.13;5068476;28;20052;-56
2023/04/14 11:37:04;;;;;;;9.07;2.05;;;;;;;17.54;54.41;100693.56;5069035;28;20056;-56
2023/04/14 11:39:34;;;;;;;8.52;2.10;;;;;;;17.95;54.38;100690.50;5068818;28;20057;-56
2023/04/14 11:42:04;;;;;;;7.07;2.05;;;;;;;18.42;56.21;100683.09;5068021;28;20040;-57
2023/04/14 11:44:32;;;;;;;7.78;1.88;;;;;;;18.31;49.16;100683.34;5068896;28;20048;-57
2023/04/14 11:47:01;;;;;;;7.43;1.88;;;;;;;17.89;52.10;100679.44;5072158;28;20056;-57